MVJ weather

CLOSED Marlboro Airport
Mandeville, Manchester, Jamaica

Public forecast

Using degrees Celsius for public forecast. Weather courtesy of forecast.io.

METAR (pilot weather report)

Closest report is Sangster International Airport, 37.6 nm (69.7 km) NW. Retrieved 2019/03/26 03:00 UTC (39 minutes ago):

MKJS 260300Z VRB02KT 9999 FEW022 26/22 Q1015

TAF (pilot weather forecast)

Forecast is more than 12 hours old.

Closest forecast is Sangster International Airport, 37.6 nm (69.7 km) NW. Retrieved 2019/03/25 00:24 UTC (1 day ago):

TAF MKJS 252315Z 2600/2624 06013KT 9999 FEW022 BECMG 2601/2603 14008KT BECMG 2614/2616 06015KT TEMPO 2619/2622 SCT020 FEW022CB